sensor_id;sensor_type;location;lat;lon;timestamp;pressure;altitude;pressure_sealevel;temperature;humidity
59367;BME280;45163;47.690;11.770;2023-12-29T00:02:11;93506.78;;;4.28;100.00
59367;BME280;45163;47.690;11.770;2023-12-29T00:04:37;93502.50;;;4.37;100.00
59367;BME280;45163;47.690;11.770;2023-12-29T00:07:03;93507.50;;;4.42;100.00
59367;BME280;45163;47.690;11.770;2023-12-29T00:09:29;93502.16;;;4.35;100.00
59367;BME280;45163;47.690;11.770;2023-12-29T00:11:55;93495.22;;;4.23;100.00
59367;BME280;45163;47.690;11.770;2023-12-29T00:14:21;93501.81;;;4.12;100.00
59367;BME280;45163;47.690;11.770;2023-12-29T00:16:47;93502.97;;;4.00;100.00
59367;BME280;45163;47.690;11.770;2023-12-29T00:19:13;93496.78;;;4.10;100.00
59367;BME280;45163;47.690;11.770;2023-12-29T00:21:39;93496.00;;;4.13;100.00
59367;BME280;45163;47.690;11.770;2023-12-29T00:24:05;93496.41;;;4.15;100.00
59367;BME280;45163;47.690;11.770;2023-12-29T00:26:31;93503.72;;;4.08;100.00
59367;BME280;45163;47.690;11.770;2023-12-29T00:28:57;93493.72;;;3.97;100.00
59367;BME280;45163;47.690;11.770;2023-12-29T00:31:23;93493.72;;;3.83;100.00
59367;BME280;45163;47.690;11.770;2023-12-29T00:33:49;93494.50;;;3.73;100.00
59367;BME280;45163;47.690;11.770;2023-12-29T00:36:18;93488.72;;;3.49;100.00
59367;BME280;45163;47.690;11.770;2023-12-29T00:38:45;93502.19;;;3.32;100.00
59367;BME280;45163;47.690;11.770;2023-12-29T00:41:11;93506.00;;;3.06;100.00
59367;BME280;45163;47.690;11.770;2023-12-29T00:43:37;93498.28;;;2.97;100.00
59367;BME280;45163;47.690;11.770;2023-12-29T00:46:07;93502.13;;;3.03;100.00
59367;BME280;45163;47.690;11.770;2023-12-29T00:48:34;93494.81;;;3.04;100.00
59367;BME280;45163;47.690;11.770;2023-12-29T00:51:01;93491.72;;;2.94;100.00
59367;BME280;45163;47.690;11.770;2023-12-29T00:53:28;93490.47;;;2.70;100.00
59367;BME280;45163;47.690;11.770;2023-12-29T00:55:55;93486.19;;;2.55;100.00
59367;BME280;45163;47.690;11.770;2023-12-29T00:58:21;93501.91;;;2.46;100.00
59367;BME280;45163;47.690;11.770;2023-12-29T01:00:47;93499.53;;;2.34;100.00
59367;BME280;45163;47.690;11.770;2023-12-29T01:03:13;93504.47;;;2.21;100.00
59367;BME280;45163;47.690;11.770;2023-12-29T01:05:39;93506.81;;;2.22;100.00
59367;BME280;45163;47.690;11.770;2023-12-29T01:08:05;93510.19;;;2.05;100.00
59367;BME280;45163;47.690;11.770;2023-12-29T01:10:31;93500.84;;;1.88;100.00
59367;BME280;45163;47.690;11.770;2023-12-29T01:12:57;93492.78;;;1.95;100.00
59367;BME280;45163;47.690;11.770;2023-12-29T01:15:23;93494.72;;;1.95;100.00
59367;BME280;45163;47.690;11.770;2023-12-29T01:17:49;93483.50;;;1.86;100.00
59367;BME280;45163;47.690;11.770;2023-12-29T01:20:15;93490.88;;;1.92;100.00
59367;BME280;45163;47.690;11.770;2023-12-29T01:22:41;93500.31;;;1.68;100.00
59367;BME280;45163;47.690;11.770;2023-12-29T01:25:07;93493.03;;;1.72;100.00
59367;BME280;45163;47.690;11.770;2023-12-29T01:27:33;93485.50;;;1.99;100.00
59367;BME280;45163;47.690;11.770;2023-12-29T01:29:59;93493.69;;;2.14;100.00
59367;BME280;45163;47.690;11.770;2023-12-29T01:32:25;93479.88;;;2.19;100.00
59367;BME280;45163;47.690;11.770;2023-12-29T01:34:52;93480.19;;;2.10;100.00
59367;BME280;45163;47.690;11.770;2023-12-29T01:37:18;93479.09;;;2.25;100.00
59367;BME280;45163;47.690;11.770;2023-12-29T01:39:44;93467.00;;;1.91;100.00
59367;BME280;45163;47.690;11.770;2023-12-29T01:42:10;93476.13;;;1.75;100.00
59367;BME280;45163;47.690;11.770;2023-12-29T01:44:37;93469.97;;;1.75;100.00
59367;BME280;45163;47.690;11.770;2023-12-29T01:47:05;93464.63;;;1.79;100.00
59367;BME280;45163;47.690;11.770;2023-12-29T01:49:36;93470.31;;;1.66;100.00
59367;BME280;45163;47.690;11.770;2023-12-29T01:52:03;93464.94;;;1.70;100.00
59367;BME280;45163;47.690;11.770;2023-12-29T01:54:35;93464.59;;;1.75;100.00
59367;BME280;45163;47.690;11.770;2023-12-29T01:57:02;93455.38;;;1.80;100.00
59367;BME280;45163;47.690;11.770;2023-12-29T01:59:29;93457.75;;;1.85;100.00
59367;BME280;45163;47.690;11.770;2023-12-29T02:01:55;93460.78;;;1.76;100.00
59367;BME280;45163;47.690;11.770;2023-12-29T02:04:23;93454.56;;;1.68;100.00
59367;BME280;45163;47.690;11.770;2023-12-29T02:06:50;93450.44;;;1.85;100.00
59367;BME280;45163;47.690;11.770;2023-12-29T02:09:17;93457.50;;;2.11;100.00
59367;BME280;45163;47.690;11.770;2023-12-29T02:11:47;93446.91;;;2.54;100.00
59367;BME280;45163;47.690;11.770;2023-12-29T02:14:14;93443.50;;;2.64;100.00
59367;BME280;45163;47.690;11.770;2023-12-29T02:16:52;93449.25;;;2.66;100.00
59367;BME280;45163;47.690;11.770;2023-12-29T02:22:00;93444.59;;;2.53;100.00
59367;BME280;45163;47.690;11.770;2023-12-29T02:24:26;93444.97;;;2.44;100.00
59367;BME280;45163;47.690;11.770;2023-12-29T02:27:07;93444.53;;;2.31;100.00
59367;BME280;45163;47.690;11.770;2023-12-29T02:29:38;93430.28;;;2.31;100.00
59367;BME280;45163;47.690;11.770;2023-12-29T02:32:10;93431.78;;;2.24;100.00
59367;BME280;45163;47.690;11.770;2023-12-29T02:34:40;93423.09;;;2.74;100.00
59367;BME280;45163;47.690;11.770;2023-12-29T02:37:08;93418.50;;;2.92;100.00
59367;BME280;45163;47.690;11.770;2023-12-29T02:39:36;93422.63;;;2.40;100.00
59367;BME280;45163;47.690;11.770;2023-12-29T02:42:02;93415.50;;;1.96;100.00
59367;BME280;45163;47.690;11.770;2023-12-29T02:44:28;93415.50;;;1.96;100.00
59367;BME280;45163;47.690;11.770;2023-12-29T02:46:54;93397.97;;;2.27;100.00
59367;BME280;45163;47.690;11.770;2023-12-29T02:49:20;93397.59;;;2.36;100.00
59367;BME280;45163;47.690;11.770;2023-12-29T02:51:46;93389.56;;;2.50;100.00
59367;BME280;45163;47.690;11.770;2023-12-29T02:54:13;93385.75;;;2.80;100.00
59367;BME280;45163;47.690;11.770;2023-12-29T02:56:39;93378.88;;;3.29;100.00
59367;BME280;45163;47.690;11.770;2023-12-29T02:59:05;93386.94;;;3.54;100.00
59367;BME280;45163;47.690;11.770;2023-12-29T03:01:31;93373.69;;;4.13;100.00
59367;BME280;45163;47.690;11.770;2023-12-29T03:03:57;93371.72;;;4.17;100.00
59367;BME280;45163;47.690;11.770;2023-12-29T03:06:23;93361.41;;;3.90;100.00
59367;BME280;45163;47.690;11.770;2023-12-29T03:08:50;93353.66;;;3.99;100.00
59367;BME280;45163;47.690;11.770;2023-12-29T03:11:16;93359.88;;;3.86;100.00
59367;BME280;45163;47.690;11.770;2023-12-29T03:13:42;93362.53;;;3.93;100.00
59367;BME280;45163;47.690;11.770;2023-12-29T03:16:09;93347.56;;;3.81;100.00
59367;BME280;45163;47.690;11.770;2023-12-29T03:18:35;93354.13;;;3.77;100.00
59367;BME280;45163;47.690;11.770;2023-12-29T03:21:04;93345.91;;;4.09;100.00
59367;BME280;45163;47.690;11.770;2023-12-29T03:23:30;93339.75;;;4.01;100.00
59367;BME280;45163;47.690;11.770;2023-12-29T03:25:56;93351.03;;;3.67;100.00
59367;BME280;45163;47.690;11.770;2023-12-29T03:28:22;93351.13;;;3.39;100.00
59367;BME280;45163;47.690;11.770;2023-12-29T03:30:48;93345.72;;;3.32;100.00
59367;BME280;45163;47.690;11.770;2023-12-29T03:33:15;93338.75;;;3.56;100.00
59367;BME280;45163;47.690;11.770;2023-12-29T03:35:41;93336.41;;;3.65;100.00
59367;BME280;45163;47.690;11.770;2023-12-29T03:38:07;93320.47;;;4.03;100.00
59367;BME280;45163;47.690;11.770;2023-12-29T03:40:33;93304.63;;;4.12;100.00
59367;BME280;45163;47.690;11.770;2023-12-29T03:42:58;93305.56;;;3.66;100.00
59367;BME280;45163;47.690;11.770;2023-12-29T03:45:24;93311.06;;;3.27;100.00
59367;BME280;45163;47.690;11.770;2023-12-29T03:47:50;93316.44;;;3.16;100.00
59367;BME280;45163;47.690;11.770;2023-12-29T03:50:16;93337.25;;;3.22;100.00
59367;BME280;45163;47.690;11.770;2023-12-29T03:52:42;93338.78;;;3.34;100.00
59367;BME280;45163;47.690;11.770;2023-12-29T03:55:08;93328.00;;;3.27;100.00
59367;BME280;45163;47.690;11.770;2023-12-29T03:57:34;93326.06;;;3.13;100.00
59367;BME280;45163;47.690;11.770;2023-12-29T04:00:00;93327.63;;;2.96;100.00
59367;BME280;45163;47.690;11.770;2023-12-29T04:02:26;93328.41;;;2.90;100.00
59367;BME280;45163;47.690;11.770;2023-12-29T04:04:52;93329.16;;;3.08;100.00
59367;BME280;45163;47.690;11.770;2023-12-29T04:07:18;93329.56;;;3.03;100.00
59367;BME280;45163;47.690;11.770;2023-12-29T04:09:44;93333.41;;;3.02;100.00
59367;BME280;45163;47.690;11.770;2023-12-29T04:12:10;93333.41;;;2.91;100.00
59367;BME280;45163;47.690;11.770;2023-12-29T04:14:36;93337.28;;;2.97;100.00
59367;BME280;45163;47.690;11.770;2023-12-29T04:17:02;93348.03;;;3.08;100.00
59367;BME280;45163;47.690;11.770;2023-12-29T04:19:29;93344.97;;;3.20;100.00
59367;BME280;45163;47.690;11.770;2023-12-29T04:21:55;93339.16;;;3.29;100.00
59367;BME280;45163;47.690;11.770;2023-12-29T04:24:21;93335.69;;;3.39;100.00
59367;BME280;45163;47.690;11.770;2023-12-29T04:26:47;93334.53;;;3.40;100.00
59367;BME280;45163;47.690;11.770;2023-12-29T04:29:13;93343.41;;;3.48;100.00
59367;BME280;45163;47.690;11.770;2023-12-29T04:31:39;93351.09;;;3.49;100.00
59367;BME280;45163;47.690;11.770;2023-12-29T04:34:05;93356.84;;;3.59;100.00
59367;BME280;45163;47.690;11.770;2023-12-29T04:36:31;93342.94;;;3.71;100.00
59367;BME280;45163;47.690;11.770;2023-12-29T04:38:57;93334.47;;;3.69;100.00
59367;BME280;45163;47.690;11.770;2023-12-29T04:41:23;93345.69;;;3.64;100.00
59367;BME280;45163;47.690;11.770;2023-12-29T04:43:49;93328.31;;;3.65;100.00
59367;BME280;45163;47.690;11.770;2023-12-29T04:46:15;93338.34;;;3.68;100.00
59367;BME280;45163;47.690;11.770;2023-12-29T04:48:41;93339.88;;;3.65;100.00
59367;BME280;45163;47.690;11.770;2023-12-29T04:51:07;93337.56;;;3.67;100.00
59367;BME280;45163;47.690;11.770;2023-12-29T04:53:32;93337.59;;;3.64;100.00
59367;BME280;45163;47.690;11.770;2023-12-29T04:55:58;93348.38;;;3.57;100.00
59367;BME280;45163;47.690;11.770;2023-12-29T04:58:24;93348.75;;;3.66;100.00
59367;BME280;45163;47.690;11.770;2023-12-29T05:00:50;93343.75;;;3.64;100.00
59367;BME280;45163;47.690;11.770;2023-12-29T05:03:16;93336.03;;;3.63;100.00
59367;BME280;45163;47.690;11.770;2023-12-29T05:05:42;93341.81;;;3.58;100.00
59367;BME280;45163;47.690;11.770;2023-12-29T05:08:08;93344.09;;;3.73;100.00
59367;BME280;45163;47.690;11.770;2023-12-29T05:10:34;93335.63;;;3.71;100.00
59367;BME280;45163;47.690;11.770;2023-12-29T05:13:02;93346.03;;;3.69;100.00
59367;BME280;45163;47.690;11.770;2023-12-29T05:15:28;93339.13;;;3.58;100.00
59367;BME280;45163;47.690;11.770;2023-12-29T05:17:54;93335.25;;;3.55;100.00
59367;BME280;45163;47.690;11.770;2023-12-29T05:20:20;93339.13;;;3.61;100.00
59367;BME280;45163;47.690;11.770;2023-12-29T05:22:46;93323.69;;;3.58;100.00
59367;BME280;45163;47.690;11.770;2023-12-29T05:25:12;93329.16;;;3.40;100.00
59367;BME280;45163;47.690;11.770;2023-12-29T05:27:38;93322.97;;;3.47;100.00
59367;BME280;45163;47.690;11.770;2023-12-29T05:30:04;93340.72;;;3.27;100.00
59367;BME280;45163;47.690;11.770;2023-12-29T05:32:30;93346.88;;;3.34;100.00
59367;BME280;45163;47.690;11.770;2023-12-29T05:34:56;93346.47;;;3.57;100.00
59367;BME280;45163;47.690;11.770;2023-12-29T05:37:22;93344.34;;;4.15;100.00
59367;BME280;45163;47.690;11.770;2023-12-29T05:39:48;93352.50;;;4.00;100.00
59367;BME280;45163;47.690;11.770;2023-12-29T05:42:14;93374.88;;;4.01;100.00
59367;BME280;45163;47.690;11.770;2023-12-29T05:44:40;93373.00;;;3.84;100.00
59367;BME280;45163;47.690;11.770;2023-12-29T05:47:06;93376.53;;;3.56;100.00
59367;BME280;45163;47.690;11.770;2023-12-29T05:49:32;93390.44;;;3.47;100.00
59367;BME280;45163;47.690;11.770;2023-12-29T05:52:04;93385.03;;;3.29;100.00
59367;BME280;45163;47.690;11.770;2023-12-29T05:54:30;93391.94;;;3.30;100.00
59367;BME280;45163;47.690;11.770;2023-12-29T05:56:56;93385.81;;;3.26;100.00
59367;BME280;45163;47.690;11.770;2023-12-29T05:59:22;93389.66;;;3.36;100.00
59367;BME280;45163;47.690;11.770;2023-12-29T06:01:48;93390.81;;;3.20;100.00
59367;BME280;45163;47.690;11.770;2023-12-29T06:04:14;93387.34;;;2.98;100.00
59367;BME280;45163;47.690;11.770;2023-12-29T06:06:43;93386.97;;;3.11;100.00
59367;BME280;45163;47.690;11.770;2023-12-29T06:09:09;93397.38;;;3.19;100.00
59367;BME280;45163;47.690;11.770;2023-12-29T06:11:36;93393.50;;;3.17;100.00
59367;BME280;45163;47.690;11.770;2023-12-29T06:14:03;93391.56;;;3.21;100.00
59367;BME280;45163;47.690;11.770;2023-12-29T06:16:29;93396.97;;;3.21;100.00
59367;BME280;45163;47.690;11.770;2023-12-29T06:18:56;93404.69;;;3.26;100.00
59367;BME280;45163;47.690;11.770;2023-12-29T06:21:22;93395.81;;;3.29;100.00
59367;BME280;45163;47.690;11.770;2023-12-29T06:23:48;93387.75;;;3.22;100.00
59367;BME280;45163;47.690;11.770;2023-12-29T06:26:15;93388.88;;;3.32;100.00
59367;BME280;45163;47.690;11.770;2023-12-29T06:28:42;93392.75;;;3.23;100.00
59367;BME280;45163;47.690;11.770;2023-12-29T06:31:08;93396.97;;;3.32;100.00
59367;BME280;45163;47.690;11.770;2023-12-29T06:33:34;93393.47;;;3.74;100.00
59367;BME280;45163;47.690;11.770;2023-12-29T06:36:00;93403.47;;;3.84;100.00
59367;BME280;45163;47.690;11.770;2023-12-29T06:38:26;93406.91;;;3.99;100.00
59367;BME280;45163;47.690;11.770;2023-12-29T06:40:52;93401.88;;;4.01;100.00
59367;BME280;45163;47.690;11.770;2023-12-29T06:43:18;93396.47;;;4.05;100.00
59367;BME280;45163;47.690;11.770;2023-12-29T06:45:44;93396.88;;;3.96;100.00
59367;BME280;45163;47.690;11.770;2023-12-29T06:48:10;93399.59;;;3.92;100.00
59367;BME280;45163;47.690;11.770;2023-12-29T06:50:36;93402.69;;;3.84;100.00
59367;BME280;45163;47.690;11.770;2023-12-29T06:53:03;93409.25;;;3.86;100.00
59367;BME280;45163;47.690;11.770;2023-12-29T06:55:29;93400.34;;;3.96;100.00
59367;BME280;45163;47.690;11.770;2023-12-29T06:57:55;93398.41;;;3.97;100.00
59367;BME280;45163;47.690;11.770;2023-12-29T07:00:21;93399.16;;;4.08;100.00
59367;BME280;45163;47.690;11.770;2023-12-29T07:02:47;93393.78;;;4.01;100.00
59367;BME280;45163;47.690;11.770;2023-12-29T07:05:13;93393.00;;;4.04;100.00
59367;BME280;45163;47.690;11.770;2023-12-29T07:07:39;93394.94;;;3.93;100.00
59367;BME280;45163;47.690;11.770;2023-12-29T07:10:05;93388.41;;;3.97;100.00
59367;BME280;45163;47.690;11.770;2023-12-29T07:12:31;93391.53;;;3.78;100.00
59367;BME280;45163;47.690;11.770;2023-12-29T07:14:57;93398.09;;;3.81;100.00
59367;BME280;45163;47.690;11.770;2023-12-29T07:17:23;93395.34;;;3.84;100.00
59367;BME280;45163;47.690;11.770;2023-12-29T07:19:49;93388.00;;;3.95;100.00
59367;BME280;45163;47.690;11.770;2023-12-29T07:22:15;93389.47;;;4.18;100.00
59367;BME280;45163;47.690;11.770;2023-12-29T07:24:41;93384.47;;;4.20;100.00
59367;BME280;45163;47.690;11.770;2023-12-29T07:27:07;93393.34;;;4.20;100.00
59367;BME280;45163;47.690;11.770;2023-12-29T07:29:33;93394.84;;;4.29;100.00
59367;BME280;45163;47.690;11.770;2023-12-29T07:31:59;93390.97;;;4.37;100.00
59367;BME280;45163;47.690;11.770;2023-12-29T07:34:25;93400.66;;;4.23;100.00
59367;BME280;45163;47.690;11.770;2023-12-29T07:36:51;93397.16;;;4.30;100.00
59367;BME280;45163;47.690;11.770;2023-12-29T07:39:18;93386.28;;;4.44;100.00
59367;BME280;45163;47.690;11.770;2023-12-29T07:41:44;93395.53;;;4.50;100.00
59367;BME280;45163;47.690;11.770;2023-12-29T07:44:11;93381.63;;;4.56;100.00
59367;BME280;45163;47.690;11.770;2023-12-29T07:46:38;93390.94;;;4.40;100.00
59367;BME280;45163;47.690;11.770;2023-12-29T07:49:05;93395.16;;;4.45;100.00
59367;BME280;45163;47.690;11.770;2023-12-29T07:51:31;93402.53;;;4.41;100.00
59367;BME280;45163;47.690;11.770;2023-12-29T07:53:57;93418.00;;;4.33;100.00
59367;BME280;45163;47.690;11.770;2023-12-29T07:56:23;93408.28;;;4.46;100.00
59367;BME280;45163;47.690;11.770;2023-12-29T07:58:49;93412.16;;;4.38;100.00
59367;BME280;45163;47.690;11.770;2023-12-29T08:01:15;93427.25;;;4.39;100.00
59367;BME280;45163;47.690;11.770;2023-12-29T08:03:41;93420.75;;;4.22;100.00
59367;BME280;45163;47.690;11.770;2023-12-29T08:06:07;93426.16;;;4.15;100.00
59367;BME280;45163;47.690;11.770;2023-12-29T08:08:33;93420.28;;;4.38;100.00
59367;BME280;45163;47.690;11.770;2023-12-29T08:11:00;93419.84;;;4.50;100.00
59367;BME280;45163;47.690;11.770;2023-12-29T08:13:26;93420.56;;;4.65;100.00
59367;BME280;45163;47.690;11.770;2023-12-29T08:15:58;93419.00;;;4.68;100.00
59367;BME280;45163;47.690;11.770;2023-12-29T08:18:24;93413.91;;;4.81;100.00
59367;BME280;45163;47.690;11.770;2023-12-29T08:20:50;93417.72;;;4.90;100.00
59367;BME280;45163;47.690;11.770;2023-12-29T08:23:16;93424.63;;;4.98;100.00
59367;BME280;45163;47.690;11.770;2023-12-29T08:25:42;93427.72;;;4.97;100.00
59367;BME280;45163;47.690;11.770;2023-12-29T08:28:08;93431.41;;;5.28;100.00
59367;BME280;45163;47.690;11.770;2023-12-29T08:30:35;93428.56;;;5.46;100.00
59367;BME280;45163;47.690;11.770;2023-12-29T08:33:03;93433.94;;;5.49;100.00
59367;BME280;45163;47.690;11.770;2023-12-29T08:35:29;93436.16;;;5.62;100.00
59367;BME280;45163;47.690;11.770;2023-12-29T08:37:55;93426.28;;;5.41;100.00
59367;BME280;45163;47.690;11.770;2023-12-29T08:40:21;93434.16;;;5.73;100.00
59367;BME280;45163;47.690;11.770;2023-12-29T08:42:47;93427.59;;;5.70;100.00
59367;BME280;45163;47.690;11.770;2023-12-29T08:45:12;93429.03;;;5.82;100.00
59367;BME280;45163;47.690;11.770;2023-12-29T08:47:38;93438.06;;;6.10;100.00
59367;BME280;45163;47.690;11.770;2023-12-29T08:50:05;93437.56;;;6.22;100.00
59367;BME280;45163;47.690;11.770;2023-12-29T08:52:31;93427.19;;;6.13;100.00
59367;BME280;45163;47.690;11.770;2023-12-29T08:54:58;93427.47;;;6.26;100.00
59367;BME280;45163;47.690;11.770;2023-12-29T08:57:24;93408.38;;;6.03;100.00
59367;BME280;45163;47.690;11.770;2023-12-29T08:59:50;93429.56;;;6.11;100.00
59367;BME280;45163;47.690;11.770;2023-12-29T09:02:16;93421.28;;;6.26;100.00
59367;BME280;45163;47.690;11.770;2023-12-29T09:04:42;93427.56;;;6.53;100.00
59367;BME280;45163;47.690;11.770;2023-12-29T09:07:08;93409.88;;;6.72;100.00
59367;BME280;45163;47.690;11.770;2023-12-29T09:09:34;93422.78;;;6.95;100.00
59367;BME280;45163;47.690;11.770;2023-12-29T09:12:00;93426.03;;;7.10;100.00
59367;BME280;45163;47.690;11.770;2023-12-29T09:14:27;93430.16;;;7.21;100.00
59367;BME280;45163;47.690;11.770;2023-12-29T09:16:55;93418.50;;;7.48;100.00
59367;BME280;45163;47.690;11.770;2023-12-29T09:19:21;93416.03;;;7.57;100.00
59367;BME280;45163;47.690;11.770;2023-12-29T09:21:47;93416.53;;;8.19;100.00
59367;BME280;45163;47.690;11.770;2023-12-29T09:24:13;93415.03;;;7.94;100.00
59367;BME280;45163;47.690;11.770;2023-12-29T09:26:39;93414.38;;;8.54;100.00
59367;BME280;45163;47.690;11.770;2023-12-29T09:29:05;93412.22;;;8.45;96.65
59367;BME280;45163;47.690;11.770;2023-12-29T09:31:31;93404.72;;;8.29;97.65
59367;BME280;45163;47.690;11.770;2023-12-29T09:33:57;93406.75;;;8.85;98.05
59367;BME280;45163;47.690;11.770;2023-12-29T09:36:23;93407.03;;;9.07;96.25
59367;BME280;45163;47.690;11.770;2023-12-29T09:38:50;93397.16;;;9.49;92.72
59367;BME280;45163;47.690;11.770;2023-12-29T09:41:17;93378.63;;;8.91;95.23
59367;BME280;45163;47.690;11.770;2023-12-29T09:43:48;93386.06;;;9.23;95.95
59367;BME280;45163;47.690;11.770;2023-12-29T09:46:16;93377.47;;;9.90;91.73
59367;BME280;45163;47.690;11.770;2023-12-29T09:48:47;93371.69;;;9.88;93.31
59367;BME280;45163;47.690;11.770;2023-12-29T09:51:15;93370.69;;;10.11;92.85
59367;BME280;45163;47.690;11.770;2023-12-29T09:53:41;93357.66;;;10.48;91.16
59367;BME280;45163;47.690;11.770;2023-12-29T09:56:08;93365.66;;;10.55;91.81
59367;BME280;45163;47.690;11.770;2023-12-29T09:58:37;93364.06;;;10.70;91.36
59367;BME280;45163;47.690;11.770;2023-12-29T10:01:04;93370.72;;;10.40;89.15
59367;BME280;45163;47.690;11.770;2023-12-29T10:03:31;93363.59;;;10.30;89.50
59367;BME280;45163;47.690;11.770;2023-12-29T10:06:00;93356.56;;;10.45;88.39
59367;BME280;45163;47.690;11.770;2023-12-29T10:08:27;93356.72;;;10.67;89.60
59367;BME280;45163;47.690;11.770;2023-12-29T10:10:58;93348.69;;;11.02;88.81
59367;BME280;45163;47.690;11.770;2023-12-29T10:13:26;93348.56;;;10.80;88.40
59367;BME280;45163;47.690;11.770;2023-12-29T10:18:35;93348.00;;;12.22;81.34
59367;BME280;45163;47.690;11.770;2023-12-29T10:21:33;93343.91;;;12.92;78.06
59367;BME280;45163;47.690;11.770;2023-12-29T10:24:14;93349.38;;;12.70;74.97
59367;BME280;45163;47.690;11.770;2023-12-29T10:26:43;93325.75;;;12.20;78.48
59367;BME280;45163;47.690;11.770;2023-12-29T10:29:10;93327.03;;;12.28;77.88
59367;BME280;45163;47.690;11.770;2023-12-29T10:31:37;93337.66;;;12.92;75.64
59367;BME280;45163;47.690;11.770;2023-12-29T10:36:49;93314.09;;;13.93;73.93
59367;BME280;45163;47.690;11.770;2023-12-29T10:39:15;93310.47;;;14.06;71.50
59367;BME280;45163;47.690;11.770;2023-12-29T10:41:42;93316.25;;;14.54;65.63
59367;BME280;45163;47.690;11.770;2023-12-29T10:44:08;93301.59;;;14.29;68.51
59367;BME280;45163;47.690;11.770;2023-12-29T10:46:34;93297.63;;;15.18;65.02
59367;BME280;45163;47.690;11.770;2023-12-29T10:49:07;93292.47;;;14.60;67.10
59367;BME280;45163;47.690;11.770;2023-12-29T10:51:37;93293.69;;;15.10;62.21
59367;BME280;45163;47.690;11.770;2023-12-29T10:54:03;93298.81;;;15.93;61.46
59367;BME280;45163;47.690;11.770;2023-12-29T10:56:33;93294.16;;;15.75;60.08
59367;BME280;45163;47.690;11.770;2023-12-29T10:58:59;93288.41;;;16.51;57.61
59367;BME280;45163;47.690;11.770;2023-12-29T11:01:26;93277.72;;;16.97;53.60
59367;BME280;45163;47.690;11.770;2023-12-29T11:06:26;93273.94;;;17.80;50.37
59367;BME280;45163;47.690;11.770;2023-12-29T11:08:53;93276.13;;;20.27;48.39
59367;BME280;45163;47.690;11.770;2023-12-29T11:11:20;93275.66;;;19.85;41.70
59367;BME280;45163;47.690;11.770;2023-12-29T11:13:46;93267.78;;;20.27;39.28
59367;BME280;45163;47.690;11.770;2023-12-29T11:16:13;93262.38;;;20.55;37.34
59367;BME280;45163;47.690;11.770;2023-12-29T11:18:41;93262.50;;;19.69;42.93
59367;BME280;45163;47.690;11.770;2023-12-29T11:21:10;93264.41;;;19.20;41.50
59367;BME280;45163;47.690;11.770;2023-12-29T11:23:36;93264.03;;;19.38;42.17
59367;BME280;45163;47.690;11.770;2023-12-29T11:26:03;93262.59;;;18.39;45.58
59367;BME280;45163;47.690;11.770;2023-12-29T11:28:29;93262.19;;;17.64;45.43
59367;BME280;45163;47.690;11.770;2023-12-29T11:30:55;93264.72;;;18.03;46.87
59367;BME280;45163;47.690;11.770;2023-12-29T11:33:24;93257.66;;;18.02;47.84
59367;BME280;45163;47.690;11.770;2023-12-29T11:36:00;93262.47;;;17.31;47.86
59367;BME280;45163;47.690;11.770;2023-12-29T11:41:51;93257.16;;;17.13;52.96
59367;BME280;45163;47.690;11.770;2023-12-29T11:44:25;93256.63;;;16.94;53.99
59367;BME280;45163;47.690;11.770;2023-12-29T11:46:56;93253.44;;;17.16;53.37
59367;BME280;45163;47.690;11.770;2023-12-29T11:49:23;93247.25;;;16.32;57.27
59367;BME280;45163;47.690;11.770;2023-12-29T11:51:49;93248.63;;;16.13;54.14
59367;BME280;45163;47.690;11.770;2023-12-29T11:56:47;93248.41;;;16.70;52.71
59367;BME280;45163;47.690;11.770;2023-12-29T11:59:21;93246.19;;;18.09;52.89
59367;BME280;45163;47.690;11.770;2023-12-29T12:01:49;93245.47;;;17.03;59.94
59367;BME280;45163;47.690;11.770;2023-12-29T12:04:35;93240.03;;;17.24;63.96
59367;BME280;45163;47.690;11.770;2023-12-29T12:07:12;93240.53;;;17.07;64.01
59367;BME280;45163;47.690;11.770;2023-12-29T12:09:39;93239.03;;;14.61;75.13
59367;BME280;45163;47.690;11.770;2023-12-29T12:12:05;93236.00;;;14.50;77.14
59367;BME280;45163;47.690;11.770;2023-12-29T12:14:47;93229.06;;;14.82;77.08
59367;BME280;45163;47.690;11.770;2023-12-29T12:17:33;93232.88;;;14.75;76.76
59367;BME280;45163;47.690;11.770;2023-12-29T12:20:09;93231.47;;;13.91;82.58
59367;BME280;45163;47.690;11.770;2023-12-29T12:22:36;93231.47;;;13.73;83.32
59367;BME280;45163;47.690;11.770;2023-12-29T12:25:03;93229.88;;;12.86;86.88
59367;BME280;45163;47.690;11.770;2023-12-29T12:27:30;93220.94;;;12.94;89.52
59367;BME280;45163;47.690;11.770;2023-12-29T12:29:58;93226.16;;;12.70;89.75
59367;BME280;45163;47.690;11.770;2023-12-29T12:32:28;93220.81;;;12.36;92.31
59367;BME280;45163;47.690;11.770;2023-12-29T12:34:55;93228.22;;;12.26;90.39
59367;BME280;45163;47.690;11.770;2023-12-29T12:37:30;93232.13;;;11.81;94.43
59367;BME280;45163;47.690;11.770;2023-12-29T12:39:56;93234.34;;;11.73;98.83
59367;BME280;45163;47.690;11.770;2023-12-29T12:42:23;93237.38;;;11.88;99.86
59367;BME280;45163;47.690;11.770;2023-12-29T12:45:04;93237.38;;;11.88;99.86
59367;BME280;45163;47.690;11.770;2023-12-29T12:47:35;93236.34;;;13.01;94.77
59367;BME280;45163;47.690;11.770;2023-12-29T12:50:04;93229.13;;;13.26;91.93
59367;BME280;45163;47.690;11.770;2023-12-29T12:52:35;93226.28;;;13.66;90.05
59367;BME280;45163;47.690;11.770;2023-12-29T12:55:02;93224.28;;;12.99;92.76
59367;BME280;45163;47.690;11.770;2023-12-29T12:57:29;93215.91;;;13.42;89.53
59367;BME280;45163;47.690;11.770;2023-12-29T12:59:56;93210.72;;;13.44;89.39
59367;BME280;45163;47.690;11.770;2023-12-29T13:02:23;93222.72;;;13.29;90.07
59367;BME280;45163;47.690;11.770;2023-12-29T13:04:50;93219.25;;;12.88;94.38
59367;BME280;45163;47.690;11.770;2023-12-29T13:07:17;93233.22;;;12.28;95.63